Terminal Aerodrome Forecast
Issued by NWS Missoula, MT

Home | Current Version | Previous Version | Text Only | Print | Product List | Glossary On
Versions: 1 2 3 4 5 6 7 8 9 10 11 12
684
FTUS45 KMSO 231128
TAFGPI
TAF
KGPI 231128Z 2312/2412 VRB03KT P6SM SKC
     FM232100 17008KT P6SM SCT120=

USA.gov is the U.S. government's official web portal to all federal, state and local government web resources and services.